SAS71L ESSA-ESGG
Flight info
| Callsign | SAS71L |
|---|---|
| Flight time | 0h 49m |
| Altitude | 30000 |
| Route | ARS N623 BEDLA N866 LAPSI DCT MOXAM |
| Aircraft | E195/M-SDE3GILORVW/S |
Departure
| Time | 2026-05-04 09:14 |
|---|---|
| Airport | Stockholm-Arlanda Airport (ESSA) |
Arrival
| Time | 2026-05-04 10:04 |
|---|---|
| Airport | Göteborg Landvetter Airport (ESGG) |
| Time | Latitude | Longitude | Altitude | Speed | Heading |
|---|---|---|---|---|---|
| 2026-05-04 09:03 | 59.65331 | 17.93139 | 110 ft | 0 kts | 250° |
| 2026-05-04 09:05 | 59.65333 | 17.93154 | 110 ft | 3 kts | 250° |
| 2026-05-04 09:06 | 59.65340 | 17.93191 | 109 ft | 3 kts | 251° |
| 2026-05-04 09:07 | 59.65343 | 17.93292 | 107 ft | 0 kts | 340° |
| 2026-05-04 09:09 | 59.65353 | 17.93285 | 110 ft | 3 kts | 340° |
| 2026-05-04 09:10 | 59.65382 | 17.93268 | 110 ft | 6 kts | 345° |
| 2026-05-04 09:10 | 59.65430 | 17.93244 | 110 ft | 9 kts | 346° |
| 2026-05-04 09:10 | 59.65468 | 17.93204 | 110 ft | 10 kts | 330° |
| 2026-05-04 09:10 | 59.65504 | 17.93086 | 110 ft | 11 kts | 264° |
| 2026-05-04 09:11 | 59.65469 | 17.92872 | 109 ft | 14 kts | 250° |
| 2026-05-04 09:11 | 59.65444 | 17.92748 | 110 ft | 12 kts | 243° |
| 2026-05-04 09:11 | 59.65444 | 17.92621 | 108 ft | 11 kts | 311° |
| 2026-05-04 09:11 | 59.65529 | 17.92534 | 104 ft | 16 kts | 339° |
| 2026-05-04 09:12 | 59.65642 | 17.92473 | 102 ft | 18 kts | 346° |
| 2026-05-04 09:12 | 59.65763 | 17.92423 | 104 ft | 17 kts | 0° |
| 2026-05-04 09:14 | 59.65479 | 17.91955 | 106 ft | 91 kts | 190° |
| 2026-05-04 09:14 | 59.64616 | 17.91654 | 130 ft | 155 kts | 189° |
| 2026-05-04 09:14 | 59.63480 | 17.91261 | 889 ft | 163 kts | 191° |
| 2026-05-04 09:14 | 59.62379 | 17.90917 | 1912 ft | 174 kts | 194° |
| 2026-05-04 09:15 | 59.61194 | 17.89755 | 2286 ft | 214 kts | 228° |
| 2026-05-04 09:15 | 59.60521 | 17.87042 | 2701 ft | 229 kts | 257° |
| 2026-05-04 09:15 | 59.60135 | 17.84036 | 2999 ft | 228 kts | 252° |
| 2026-05-04 09:15 | 59.59457 | 17.81144 | 3673 ft | 233 kts | 240° |
| 2026-05-04 09:17 | 59.57175 | 17.55817 | 7316 ft | 256 kts | 266° |
| 2026-05-04 09:18 | 59.57170 | 17.52291 | 7627 ft | 257 kts | 271° |
| 2026-05-04 09:18 | 59.57225 | 17.48759 | 7941 ft | 258 kts | 271° |
| 2026-05-04 09:18 | 59.57294 | 17.45209 | 8261 ft | 259 kts | 271° |
| 2026-05-04 09:18 | 59.57365 | 17.41642 | 8579 ft | 261 kts | 271° |
| 2026-05-04 09:19 | 59.57437 | 17.38057 | 8897 ft | 262 kts | 271° |
| 2026-05-04 09:19 | 59.57505 | 17.34461 | 9227 ft | 262 kts | 271° |
| 2026-05-04 09:19 | 59.57574 | 17.30851 | 9679 ft | 264 kts | 271° |
| 2026-05-04 09:19 | 59.57641 | 17.27270 | 10090 ft | 266 kts | 271° |
| 2026-05-04 09:20 | 59.57709 | 17.23551 | 10527 ft | 275 kts | 271° |
| 2026-05-04 09:20 | 59.57776 | 17.19712 | 10971 ft | 283 kts | 271° |
| 2026-05-04 09:20 | 59.57846 | 17.15770 | 11434 ft | 291 kts | 271° |
| 2026-05-04 09:20 | 59.57915 | 17.11771 | 11884 ft | 290 kts | 270° |
| 2026-05-04 09:21 | 59.57981 | 17.07790 | 12346 ft | 291 kts | 270° |
| 2026-05-04 09:21 | 59.58046 | 17.03837 | 12795 ft | 292 kts | 270° |
| 2026-05-04 09:21 | 59.58110 | 16.99820 | 13244 ft | 294 kts | 270° |
| 2026-05-04 09:21 | 59.58175 | 16.95780 | 13688 ft | 295 kts | 270° |
| 2026-05-04 09:22 | 59.58237 | 16.91710 | 14097 ft | 296 kts | 270° |
| 2026-05-04 09:22 | 59.58301 | 16.87630 | 14519 ft | 298 kts | 270° |
| 2026-05-04 09:22 | 59.58361 | 16.83534 | 14973 ft | 299 kts | 270° |
| 2026-05-04 09:22 | 59.58422 | 16.79408 | 15406 ft | 301 kts | 270° |
| 2026-05-04 09:23 | 59.58481 | 16.75320 | 15832 ft | 302 kts | 270° |
| 2026-05-04 09:23 | 59.58560 | 16.71161 | 16357 ft | 305 kts | 271° |
| 2026-05-04 09:23 | 59.58706 | 16.66968 | 16897 ft | 307 kts | 272° |
| 2026-05-04 09:23 | 59.58909 | 16.62736 | 17446 ft | 310 kts | 275° |
| 2026-05-04 09:25 | 59.61868 | 16.32798 | 21005 ft | 323 kts | 277° |
| 2026-05-04 09:25 | 59.62188 | 16.28429 | 21519 ft | 319 kts | 265° |
| 2026-05-04 09:26 | 59.61788 | 16.24214 | 22053 ft | 315 kts | 252° |
| 2026-05-04 09:26 | 59.61037 | 16.20159 | 22599 ft | 314 kts | 246° |
| 2026-05-04 09:26 | 59.60111 | 16.16253 | 23152 ft | 314 kts | 243° |
| 2026-05-04 09:26 | 59.59106 | 16.12422 | 23639 ft | 314 kts | 242° |
| 2026-05-04 09:27 | 59.57972 | 16.08740 | 24109 ft | 314 kts | 236° |
| 2026-05-04 09:27 | 59.56738 | 16.05205 | 24575 ft | 313 kts | 236° |
| 2026-05-04 09:27 | 59.55493 | 16.01681 | 25066 ft | 312 kts | 236° |
| 2026-05-04 09:27 | 59.54246 | 15.98190 | 25550 ft | 310 kts | 236° |
| 2026-05-04 09:28 | 59.53021 | 15.94763 | 26052 ft | 308 kts | 236° |
| 2026-05-04 09:28 | 59.51788 | 15.91332 | 26555 ft | 305 kts | 236° |
| 2026-05-04 09:28 | 59.50570 | 15.87944 | 27067 ft | 302 kts | 235° |
| 2026-05-04 09:28 | 59.49363 | 15.84586 | 27562 ft | 298 kts | 235° |
| 2026-05-04 09:29 | 59.48169 | 15.81277 | 28090 ft | 294 kts | 235° |
| 2026-05-04 09:29 | 59.46991 | 15.78008 | 28638 ft | 290 kts | 235° |
| 2026-05-04 09:29 | 59.45830 | 15.74798 | 29179 ft | 285 kts | 235° |
| 2026-05-04 09:29 | 59.44688 | 15.71647 | 29763 ft | 279 kts | 235° |
| 2026-05-04 09:30 | 59.43578 | 15.68582 | 30232 ft | 272 kts | 236° |
| 2026-05-04 09:30 | 59.42496 | 15.65590 | 30689 ft | 265 kts | 236° |
| 2026-05-04 09:30 | 59.41444 | 15.62692 | 31156 ft | 256 kts | 236° |
| 2026-05-04 09:30 | 59.40426 | 15.59895 | 31566 ft | 249 kts | 236° |
| 2026-05-04 09:31 | 59.39430 | 15.57157 | 31879 ft | 244 kts | 235° |
| 2026-05-04 09:31 | 59.38457 | 15.54488 | 32205 ft | 237 kts | 236° |
| 2026-05-04 09:31 | 59.37522 | 15.51928 | 32524 ft | 230 kts | 235° |
| 2026-05-04 09:31 | 59.36603 | 15.49411 | 32791 ft | 224 kts | 235° |
| 2026-05-04 09:32 | 59.35704 | 15.46955 | 32955 ft | 220 kts | 235° |
| 2026-05-04 09:32 | 59.34821 | 15.44543 | 33096 ft | 216 kts | 235° |
| 2026-05-04 09:34 | 59.28664 | 15.27761 | 33085 ft | 220 kts | 235° |
| 2026-05-04 09:34 | 59.27763 | 15.25327 | 33031 ft | 222 kts | 235° |
| 2026-05-04 09:34 | 59.26856 | 15.22882 | 33063 ft | 222 kts | 235° |
| 2026-05-04 09:34 | 59.25959 | 15.20454 | 33076 ft | 223 kts | 235° |
| 2026-05-04 09:35 | 59.25044 | 15.17984 | 33073 ft | 226 kts | 235° |
| 2026-05-04 09:35 | 59.24117 | 15.15484 | 33065 ft | 228 kts | 235° |
| 2026-05-04 09:35 | 59.23180 | 15.12959 | 33083 ft | 231 kts | 235° |
| 2026-05-04 09:35 | 59.22232 | 15.10406 | 33077 ft | 234 kts | 235° |
| 2026-05-04 09:37 | 59.15081 | 14.91242 | 33112 ft | 269 kts | 235° |
| 2026-05-04 09:37 | 59.13961 | 14.88249 | 33115 ft | 276 kts | 235° |
| 2026-05-04 09:38 | 59.12829 | 14.85239 | 33142 ft | 283 kts | 235° |
| 2026-05-04 09:38 | 59.11652 | 14.82106 | 33129 ft | 290 kts | 235° |
| 2026-05-04 09:38 | 59.10441 | 14.78883 | 33119 ft | 298 kts | 235° |
| 2026-05-04 09:38 | 59.09201 | 14.75590 | 33128 ft | 306 kts | 235° |
| 2026-05-04 09:39 | 59.06615 | 14.68744 | 33118 ft | 321 kts | 235° |
| 2026-05-04 09:39 | 59.03895 | 14.61563 | 32865 ft | 342 kts | 235° |
| 2026-05-04 09:40 | 59.02452 | 14.57763 | 32613 ft | 356 kts | 235° |
| 2026-05-04 09:40 | 59.00974 | 14.53873 | 32371 ft | 369 kts | 235° |
| 2026-05-04 09:40 | 58.99419 | 14.49795 | 32113 ft | 380 kts | 235° |
| 2026-05-04 09:40 | 58.97846 | 14.45673 | 31844 ft | 379 kts | 234° |
| 2026-05-04 09:41 | 58.96278 | 14.41570 | 31578 ft | 379 kts | 235° |
| 2026-05-04 09:42 | 58.85117 | 14.12710 | 29526 ft | 383 kts | 230° |
| 2026-05-04 09:43 | 58.83314 | 14.08906 | 29128 ft | 384 kts | 229° |
| 2026-05-04 09:43 | 58.81380 | 14.05348 | 28644 ft | 384 kts | 224° |
| 2026-05-04 09:43 | 58.79335 | 14.02028 | 28132 ft | 381 kts | 223° |
| 2026-05-04 09:43 | 58.77418 | 13.98621 | 27551 ft | 377 kts | 226° |
| 2026-05-04 09:44 | 58.75511 | 13.95169 | 26932 ft | 373 kts | 226° |
| 2026-05-04 09:44 | 58.73643 | 13.91744 | 26323 ft | 368 kts | 226° |
| 2026-05-04 09:44 | 58.71796 | 13.88369 | 25728 ft | 363 kts | 226° |
| 2026-05-04 09:46 | 58.59342 | 13.65723 | 22485 ft | 344 kts | 227° |
| 2026-05-04 09:46 | 58.57603 | 13.62575 | 21997 ft | 343 kts | 227° |
| 2026-05-04 09:46 | 58.55870 | 13.59453 | 21541 ft | 340 kts | 226° |
| 2026-05-04 09:47 | 58.54174 | 13.56395 | 21123 ft | 338 kts | 227° |
| 2026-05-04 09:47 | 58.52464 | 13.53320 | 20732 ft | 336 kts | 227° |
| 2026-05-04 09:49 | 58.40697 | 13.32267 | 18175 ft | 325 kts | 227° |
| 2026-05-04 09:49 | 58.39050 | 13.29332 | 17776 ft | 324 kts | 227° |
| 2026-05-04 09:49 | 58.37408 | 13.26417 | 17358 ft | 322 kts | 227° |
| 2026-05-04 09:51 | 58.28047 | 13.09852 | 14954 ft | 295 kts | 227° |
| 2026-05-04 09:51 | 58.26536 | 13.07189 | 14602 ft | 296 kts | 227° |
| 2026-05-04 09:51 | 58.25025 | 13.04532 | 14229 ft | 295 kts | 227° |
| 2026-05-04 09:51 | 58.23521 | 13.01892 | 13867 ft | 293 kts | 226° |
| 2026-05-04 09:52 | 58.22027 | 12.99268 | 13497 ft | 294 kts | 227° |
| 2026-05-04 09:52 | 58.20527 | 12.96642 | 13096 ft | 292 kts | 226° |
| 2026-05-04 09:52 | 58.19036 | 12.94032 | 12683 ft | 290 kts | 226° |
| 2026-05-04 09:52 | 58.17559 | 12.91449 | 12295 ft | 288 kts | 226° |
| 2026-05-04 09:53 | 58.16085 | 12.88872 | 11910 ft | 288 kts | 227° |
| 2026-05-04 09:53 | 58.14614 | 12.86308 | 11531 ft | 287 kts | 227° |
| 2026-05-04 09:53 | 58.13151 | 12.83757 | 11146 ft | 286 kts | 227° |
| 2026-05-04 09:53 | 58.11691 | 12.81217 | 10764 ft | 285 kts | 227° |
| 2026-05-04 09:54 | 58.10234 | 12.78685 | 10386 ft | 282 kts | 227° |
| 2026-05-04 09:54 | 58.08798 | 12.76190 | 10019 ft | 278 kts | 227° |
| 2026-05-04 09:54 | 58.07396 | 12.73755 | 9655 ft | 276 kts | 227° |
| 2026-05-04 09:54 | 58.05988 | 12.71320 | 9266 ft | 274 kts | 227° |
| 2026-05-04 09:55 | 58.04586 | 12.68887 | 8774 ft | 274 kts | 226° |
| 2026-05-04 09:55 | 58.03191 | 12.66478 | 8342 ft | 269 kts | 226° |
| 2026-05-04 09:55 | 58.01821 | 12.64117 | 7909 ft | 264 kts | 226° |
| 2026-05-04 09:55 | 58.00480 | 12.61798 | 7468 ft | 259 kts | 226° |
| 2026-05-04 09:56 | 57.99145 | 12.59514 | 7019 ft | 258 kts | 224° |
| 2026-05-04 09:56 | 57.97727 | 12.57484 | 6593 ft | 259 kts | 219° |
| 2026-05-04 09:56 | 57.96225 | 12.55593 | 6193 ft | 259 kts | 214° |
| 2026-05-04 09:56 | 57.94621 | 12.54015 | 5810 ft | 260 kts | 211° |
| 2026-05-04 09:57 | 57.93006 | 12.52489 | 5481 ft | 259 kts | 211° |
| 2026-05-04 09:57 | 57.91384 | 12.50981 | 5159 ft | 259 kts | 210° |
| 2026-05-04 09:57 | 57.90312 | 12.49993 | 4944 ft | 258 kts | 210° |
| 2026-05-04 09:57 | 57.88698 | 12.48516 | 4645 ft | 257 kts | 210° |
| 2026-05-04 09:58 | 57.87099 | 12.47046 | 4319 ft | 254 kts | 210° |
| 2026-05-04 09:58 | 57.85511 | 12.45589 | 3971 ft | 255 kts | 210° |
| 2026-05-04 09:58 | 57.83919 | 12.44116 | 3649 ft | 253 kts | 210° |
| 2026-05-04 10:00 | 57.74511 | 12.35516 | 2089 ft | 170 kts | 210° |
| 2026-05-04 10:00 | 57.73496 | 12.34579 | 1900 ft | 155 kts | 211° |
| 2026-05-04 10:02 | 57.67571 | 12.29156 | 541 ft | 130 kts | 208° |
| 2026-05-04 10:04 | 57.66222 | 12.28271 | 509 ft | 12 kts | 26° |
| 2026-05-04 10:04 | 57.66313 | 12.28353 | 509 ft | 16 kts | 26° |
| 2026-05-04 10:04 | 57.66426 | 12.28457 | 510 ft | 19 kts | 26° |
| 2026-05-04 10:04 | 57.66549 | 12.28567 | 510 ft | 20 kts | 26° |
| 2026-05-04 10:05 | 57.66677 | 12.28685 | 511 ft | 20 kts | 26° |
| 2026-05-04 10:05 | 57.66790 | 12.28789 | 511 ft | 19 kts | 26° |
| 2026-05-04 10:05 | 57.66910 | 12.28898 | 512 ft | 19 kts | 25° |
| 2026-05-04 10:05 | 57.67016 | 12.28993 | 513 ft | 13 kts | 28° |
| 2026-05-04 10:06 | 57.67030 | 12.29126 | 514 ft | 10 kts | 115° |
| 2026-05-04 10:06 | 57.66997 | 12.29250 | 515 ft | 11 kts | 117° |
| 2026-05-04 10:06 | 57.66991 | 12.29354 | 515 ft | 8 kts | 44° |
| 2026-05-04 10:08 | 57.67006 | 12.29532 | 515 ft | 0 kts | 116° |